طرطوس, سوريا

10:56 PM EET on êواêر 23, 2017 (GMT +0200)
Bassel Al-Assad International | | Change Station

Elev 23 ft 35.53 °N, 35.77 °E | Updated -204 second ago

صافية
صافية
45 °F
Feels Like 42 °F
N
5
ريح متغير ريح from شمال

هذا اليوم
High -- | Low -- °F
--% Chance of Precip.
Yesterday
High -- | Low -- °F
Precip. -- في
الضغط 30.21 في
وضوح الرؤية -9999.0 أميال
سحابات
رياح باردة 42 °F
نقطة الندى 30 °F
الرطوبة 57%
Rainfall 0.00 في
عمق الثلج Not available.
6:40 AM 4:56 PM
الهلال الأخير, 16% visible
METAR OSLK 232100Z 35004KT CAVOK 07/M01 Q1023
الضغط 30.21 في
وضوح الرؤية -9999.0 أميال
سحابات
رياح باردة 42 °F
نقطة الندى 30 °F
الرطوبة 57%
Rainfall 0.00 في
عمق الثلج Not available.
6:40 AM 4:56 PM
الهلال الأخير, 16% visible
METAR OSLK 232100Z 35004KT CAVOK 07/M01 Q1023

Get Your Daily Forecast Email!

Thanks for signing up!

Be on the lookout for a verification email in your inbox.

You'll start receiving the daily forecast at 8 AM.

×

10-Day Weather Forecast

No radar image for this location.
×

Almanac

علم الفلك

Jan. 23, 2017 Rise Set
Actual Time
Civil Twilight
Nautical Twilight
Astronomical Twilight
قمر
Length Of Visible Light
طول الیوم
Tomorrow will be .
, % of the Moon is Illuminated

Today's Extremes

Country Highs Country Lows

Community

WunderPhotos

Upload Photos

1,962,540 photos uploaded!

WunderBlog® & News

Nearby

جودة الهواء

  جودة الهواء AQ Index Pollutant
Not available.

عمق الثلج

Station Depth Elevation

Earthquake Activity

City Distance Mag. Time & Date
Minimum magnitude displayed is 2.5.

Coastal Water Temperatures

مكان درجات الحرارة

Stations

Nearby Weather Stations

Station Location الحرارة رياح باردة نقطة الندى الرطوبة ريح Precip. Elev تحديث Type